sensor_id;sensor_type;location;lat;lon;timestamp;pressure;altitude;pressure_sealevel;temperature;humidity
67341;BME280;54227;45.198;5.732;2022-07-21T00:01:18;99548.50;;;29.20;41.92
67341;BME280;54227;45.198;5.732;2022-07-21T00:03:44;99543.28;;;29.18;42.03
67341;BME280;54227;45.198;5.732;2022-07-21T00:06:09;99550.50;;;29.19;41.83
67341;BME280;54227;45.198;5.732;2022-07-21T00:08:35;99550.50;;;29.19;42.23
67341;BME280;54227;45.198;5.732;2022-07-21T00:11:00;99553.34;;;29.19;42.19
67341;BME280;54227;45.198;5.732;2022-07-21T00:13:26;99551.38;;;29.16;42.12
67341;BME280;54227;45.198;5.732;2022-07-21T00:15:51;99555.78;;;29.17;42.05
67341;BME280;54227;45.198;5.732;2022-07-21T00:18:18;99544.88;;;29.19;42.21
67341;BME280;54227;45.198;5.732;2022-07-21T00:20:44;99548.13;;;29.18;42.19
67341;BME280;54227;45.198;5.732;2022-07-21T00:23:09;99555.34;;;29.19;42.09
67341;BME280;54227;45.198;5.732;2022-07-21T00:25:35;99551.31;;;29.20;42.00
67341;BME280;54227;45.198;5.732;2022-07-21T00:28:04;99546.13;;;29.18;41.75
67341;BME280;54227;45.198;5.732;2022-07-21T00:30:31;99544.53;;;29.17;41.97
67341;BME280;54227;45.198;5.732;2022-07-21T00:32:57;99544.97;;;29.16;41.80
67341;BME280;54227;45.198;5.732;2022-07-21T00:35:22;99542.50;;;29.18;41.90
67341;BME280;54227;45.198;5.732;2022-07-21T00:37:48;99539.31;;;29.16;41.85
67341;BME280;54227;45.198;5.732;2022-07-21T00:40:14;99542.94;;;29.16;41.80
67341;BME280;54227;45.198;5.732;2022-07-21T00:42:41;99540.47;;;29.18;41.85
67341;BME280;54227;45.198;5.732;2022-07-21T00:45:08;99544.53;;;29.17;41.69
67341;BME280;54227;45.198;5.732;2022-07-21T00:47:35;99556.94;;;29.20;41.85
67341;BME280;54227;45.198;5.732;2022-07-21T00:50:05;99541.28;;;29.19;41.88
67341;BME280;54227;45.198;5.732;2022-07-21T00:52:31;99540.13;;;29.16;41.87
67341;BME280;54227;45.198;5.732;2022-07-21T00:54:57;99544.97;;;29.16;41.74
67341;BME280;54227;45.198;5.732;2022-07-21T00:57:22;99545.75;;;29.16;41.69
67341;BME280;54227;45.198;5.732;2022-07-21T00:59:50;99544.97;;;29.16;41.68
67341;BME280;54227;45.198;5.732;2022-07-21T01:02:17;99536.50;;;29.16;41.51
67341;BME280;54227;45.198;5.732;2022-07-21T01:04:42;99543.34;;;29.15;41.58
67341;BME280;54227;45.198;5.732;2022-07-21T01:07:08;99540.16;;;29.13;41.76
67341;BME280;54227;45.198;5.732;2022-07-21T01:09:34;99544.97;;;29.16;41.52
67341;BME280;54227;45.198;5.732;2022-07-21T01:12:00;99544.97;;;29.16;41.83
67341;BME280;54227;45.198;5.732;2022-07-21T01:14:26;99538.16;;;29.13;41.84
67341;BME280;54227;45.198;5.732;2022-07-21T01:16:52;99538.94;;;29.14;41.70
67341;BME280;54227;45.198;5.732;2022-07-21T01:19:18;99536.91;;;29.14;41.74
67341;BME280;54227;45.198;5.732;2022-07-21T01:21:45;99532.06;;;29.15;41.59
67341;BME280;54227;45.198;5.732;2022-07-21T01:24:12;99535.31;;;29.13;41.54
67341;BME280;54227;45.198;5.732;2022-07-21T01:26:46;99534.53;;;29.13;41.58
67341;BME280;54227;45.198;5.732;2022-07-21T01:29:13;99533.75;;;29.12;41.83
67341;BME280;54227;45.198;5.732;2022-07-21T01:31:40;99524.94;;;29.10;41.63
67341;BME280;54227;45.198;5.732;2022-07-21T01:34:06;99538.94;;;29.14;41.66
67341;BME280;54227;45.198;5.732;2022-07-21T01:36:32;99534.19;;;29.11;41.44
67341;BME280;54227;45.198;5.732;2022-07-21T01:38:57;99529.69;;;29.13;41.56
67341;BME280;54227;45.198;5.732;2022-07-21T01:41:42;99522.03;;;29.14;41.43
67341;BME280;54227;45.198;5.732;2022-07-21T01:44:09;99527.31;;;29.12;41.78
67341;BME280;54227;45.198;5.732;2022-07-21T01:46:39;99523.25;;;29.13;41.66
67341;BME280;54227;45.198;5.732;2022-07-21T01:49:06;99533.75;;;29.12;41.59
67341;BME280;54227;45.198;5.732;2022-07-21T01:51:33;99523.25;;;29.13;41.43
67341;BME280;54227;45.198;5.732;2022-07-21T01:53:59;99531.72;;;29.13;41.66
67341;BME280;54227;45.198;5.732;2022-07-21T01:56:26;99522.47;;;29.12;41.62
67341;BME280;54227;45.198;5.732;2022-07-21T01:58:54;99525.66;;;29.14;41.43
67341;BME280;54227;45.198;5.732;2022-07-21T02:01:22;99528.47;;;29.14;41.46
67341;BME280;54227;45.198;5.732;2022-07-21T02:03:48;99526.44;;;29.15;41.34
67341;BME280;54227;45.198;5.732;2022-07-21T02:06:14;99522.03;;;29.14;41.46
67341;BME280;54227;45.198;5.732;2022-07-21T02:08:40;99528.06;;;29.16;41.44
67341;BME280;54227;45.198;5.732;2022-07-21T02:11:08;99522.03;;;29.14;41.46
67341;BME280;54227;45.198;5.732;2022-07-21T02:13:34;99514.47;;;29.11;41.56
67341;BME280;54227;45.198;5.732;2022-07-21T02:16:00;99518.88;;;29.12;41.29
67341;BME280;54227;45.198;5.732;2022-07-21T02:18:25;99519.31;;;29.10;41.62
67341;BME280;54227;45.198;5.732;2022-07-21T02:20:51;99515.25;;;29.11;41.61
67341;BME280;54227;45.198;5.732;2022-07-21T02:23:20;99517.72;;;29.09;41.33
67341;BME280;54227;45.198;5.732;2022-07-21T02:25:45;99528.53;;;29.11;41.34
67341;BME280;54227;45.198;5.732;2022-07-21T02:28:11;99527.31;;;29.12;41.45
67341;BME280;54227;45.198;5.732;2022-07-21T02:30:37;99528.91;;;29.13;41.31
67341;BME280;54227;45.198;5.732;2022-07-21T02:33:06;99531.34;;;29.11;41.42
67341;BME280;54227;45.198;5.732;2022-07-21T02:35:33;99529.78;;;29.10;41.21
67341;BME280;54227;45.198;5.732;2022-07-21T02:37:59;99524.13;;;29.10;41.55
67341;BME280;54227;45.198;5.732;2022-07-21T02:40:25;99519.31;;;29.10;41.41
67341;BME280;54227;45.198;5.732;2022-07-21T02:42:51;99520.53;;;29.09;41.57
67341;BME280;54227;45.198;5.732;2022-07-21T02:45:16;99528.97;;;29.09;41.08
67341;BME280;54227;45.198;5.732;2022-07-21T02:50:18;99517.72;;;29.09;41.14
67341;BME280;54227;45.198;5.732;2022-07-21T02:52:44;99525.72;;;29.11;41.45
67341;BME280;54227;45.198;5.732;2022-07-21T02:55:10;99522.13;;;29.10;41.40
67341;BME280;54227;45.198;5.732;2022-07-21T02:57:36;99518.94;;;29.08;41.46
67341;BME280;54227;45.198;5.732;2022-07-21T03:00:05;99516.47;;;29.10;41.18
67341;BME280;54227;45.198;5.732;2022-07-21T03:02:31;99518.50;;;29.10;41.24
67341;BME280;54227;45.198;5.732;2022-07-21T03:04:57;99515.31;;;29.08;41.46
67341;BME280;54227;45.198;5.732;2022-07-21T03:07:22;99519.72;;;29.09;41.09
67341;BME280;54227;45.198;5.732;2022-07-21T03:09:48;99516.47;;;29.10;41.34
67341;BME280;54227;45.198;5.732;2022-07-21T03:12:13;99527.31;;;29.12;41.14
67341;BME280;54227;45.198;5.732;2022-07-21T03:14:39;99522.91;;;29.11;41.46
67341;BME280;54227;45.198;5.732;2022-07-21T03:17:04;99520.94;;;29.08;41.33
67341;BME280;54227;45.198;5.732;2022-07-21T03:19:29;99527.75;;;29.10;41.19
67341;BME280;54227;45.198;5.732;2022-07-21T03:21:55;99525.72;;;29.11;41.29
67341;BME280;54227;45.198;5.732;2022-07-21T03:24:20;99527.75;;;29.10;41.32
67341;BME280;54227;45.198;5.732;2022-07-21T03:26:46;99524.97;;;29.06;41.35
67341;BME280;54227;45.198;5.732;2022-07-21T03:29:11;99528.19;;;29.09;41.23
67341;BME280;54227;45.198;5.732;2022-07-21T03:31:36;99533.03;;;29.08;41.07
67341;BME280;54227;45.198;5.732;2022-07-21T03:34:03;99536.25;;;29.06;41.39
67341;BME280;54227;45.198;5.732;2022-07-21T03:36:28;99543.47;;;29.08;41.32
67341;BME280;54227;45.198;5.732;2022-07-21T03:38:54;99539.44;;;29.09;40.89
67341;BME280;54227;45.198;5.732;2022-07-21T03:41:19;99535.09;;;29.04;41.10
67341;BME280;54227;45.198;5.732;2022-07-21T03:43:45;99535.00;;;29.08;41.07
67341;BME280;54227;45.198;5.732;2022-07-21T03:46:10;99541.53;;;29.04;41.22
67341;BME280;54227;45.198;5.732;2022-07-21T03:48:35;99539.44;;;29.09;41.32
67341;BME280;54227;45.198;5.732;2022-07-21T03:51:01;99551.50;;;29.09;41.14
67341;BME280;54227;45.198;5.732;2022-07-21T03:53:26;99546.72;;;29.06;41.11
67341;BME280;54227;45.198;5.732;2022-07-21T03:55:52;99551.13;;;29.07;41.36
67341;BME280;54227;45.198;5.732;2022-07-21T03:58:17;99553.53;;;29.09;41.14
67341;BME280;54227;45.198;5.732;2022-07-21T04:00:44;99547.91;;;29.09;40.96
67341;BME280;54227;45.198;5.732;2022-07-21T04:03:10;99551.50;;;29.09;41.01
67341;BME280;54227;45.198;5.732;2022-07-21T04:05:37;99548.31;;;29.07;41.13
67341;BME280;54227;45.198;5.732;2022-07-21T04:08:06;99558.38;;;29.08;41.20
67341;BME280;54227;45.198;5.732;2022-07-21T04:10:34;99546.28;;;29.08;41.03
67341;BME280;54227;45.198;5.732;2022-07-21T04:13:01;99547.09;;;29.08;41.26
67341;BME280;54227;45.198;5.732;2022-07-21T04:15:28;99555.56;;;29.08;41.23
67341;BME280;54227;45.198;5.732;2022-07-21T04:17:54;99543.19;;;29.02;41.38
67341;BME280;54227;45.198;5.732;2022-07-21T04:20:19;99549.97;;;29.04;41.19
67341;BME280;54227;45.198;5.732;2022-07-21T04:22:46;99551.56;;;29.05;41.31
67341;BME280;54227;45.198;5.732;2022-07-21T04:25:13;99545.94;;;29.05;41.04
67341;BME280;54227;45.198;5.732;2022-07-21T04:27:39;99547.50;;;29.06;41.20
67341;BME280;54227;45.198;5.732;2022-07-21T04:30:07;99550.84;;;29.01;41.29
67341;BME280;54227;45.198;5.732;2022-07-21T04:32:33;99552.44;;;29.02;41.38
67341;BME280;54227;45.198;5.732;2022-07-21T04:34:59;99550.03;;;29.01;41.36
67341;BME280;54227;45.198;5.732;2022-07-21T04:37:24;99539.56;;;29.01;41.39
67341;BME280;54227;45.198;5.732;2022-07-21T04:39:49;99545.22;;;29.01;41.27
67341;BME280;54227;45.198;5.732;2022-07-21T04:42:15;99545.22;;;29.01;41.34
67341;BME280;54227;45.198;5.732;2022-07-21T04:44:40;99544.78;;;29.03;41.38
67341;BME280;54227;45.198;5.732;2022-07-21T04:47:06;99540.38;;;29.02;41.47
67341;BME280;54227;45.198;5.732;2022-07-21T04:49:31;99545.56;;;29.03;41.27
67341;BME280;54227;45.198;5.732;2022-07-21T04:51:57;99552.75;;;29.08;41.18
67341;BME280;54227;45.198;5.732;2022-07-21T04:54:22;99548.69;;;29.09;41.38
67341;BME280;54227;45.198;5.732;2022-07-21T04:56:48;99554.69;;;29.11;41.16
67341;BME280;54227;45.198;5.732;2022-07-21T04:59:13;99548.63;;;29.13;41.12
67341;BME280;54227;45.198;5.732;2022-07-21T05:01:39;99555.00;;;29.17;41.28
67341;BME280;54227;45.198;5.732;2022-07-21T05:04:05;99559.31;;;29.21;41.07
67341;BME280;54227;45.198;5.732;2022-07-21T05:06:31;99546.84;;;29.22;41.22
67341;BME280;54227;45.198;5.732;2022-07-21T05:08:57;99549.25;;;29.24;41.05
67341;BME280;54227;45.198;5.732;2022-07-21T05:11:23;99551.53;;;29.29;41.04
67341;BME280;54227;45.198;5.732;2022-07-21T05:13:49;99550.69;;;29.32;41.02
67341;BME280;54227;45.198;5.732;2022-07-21T05:16:14;99553.44;;;29.36;41.36
67341;BME280;54227;45.198;5.732;2022-07-21T05:18:39;99552.28;;;29.33;41.13
67341;BME280;54227;45.198;5.732;2022-07-21T05:21:05;99552.66;;;29.35;41.71
67341;BME280;54227;45.198;5.732;2022-07-21T05:23:30;99552.66;;;29.35;41.77
67341;BME280;54227;45.198;5.732;2022-07-21T05:25:56;99551.81;;;29.38;41.66
67341;BME280;54227;45.198;5.732;2022-07-21T05:28:21;99554.97;;;29.40;41.71
67341;BME280;54227;45.198;5.732;2022-07-21T05:30:46;99553.75;;;29.41;41.75
67341;BME280;54227;45.198;5.732;2022-07-21T05:33:12;99552.91;;;29.44;41.65
67341;BME280;54227;45.198;5.732;2022-07-21T05:35:37;99558.16;;;29.42;41.36
67341;BME280;54227;45.198;5.732;2022-07-21T05:38:03;99556.06;;;29.46;41.51
67341;BME280;54227;45.198;5.732;2022-07-21T05:40:28;99563.28;;;29.47;41.54
67341;BME280;54227;45.198;5.732;2022-07-21T05:42:54;99566.91;;;29.48;41.22
67341;BME280;54227;45.198;5.732;2022-07-21T05:45:19;99562.06;;;29.48;41.52
67341;BME280;54227;45.198;5.732;2022-07-21T05:47:45;99562.06;;;29.48;41.61
67341;BME280;54227;45.198;5.732;2022-07-21T05:50:11;99562.88;;;29.49;41.77
67341;BME280;54227;45.198;5.732;2022-07-21T05:52:37;99561.25;;;29.51;41.68
67341;BME280;54227;45.198;5.732;2022-07-21T05:55:03;99565.66;;;29.52;41.29
67341;BME280;54227;45.198;5.732;2022-07-21T05:57:28;99561.25;;;29.51;41.37
67341;BME280;54227;45.198;5.732;2022-07-21T05:59:55;99569.28;;;29.53;41.22
67341;BME280;54227;45.198;5.732;2022-07-21T06:02:20;99560.81;;;29.53;41.83
67341;BME280;54227;45.198;5.732;2022-07-21T06:04:46;99569.06;;;29.40;40.73
67341;BME280;54227;45.198;5.732;2022-07-21T06:07:11;99579.84;;;29.22;40.41
67341;BME280;54227;45.198;5.732;2022-07-21T06:09:37;99580.28;;;28.97;42.22
67341;BME280;54227;45.198;5.732;2022-07-21T06:12:02;99589.72;;;28.83;43.40
67341;BME280;54227;45.198;5.732;2022-07-21T06:14:28;99586.13;;;28.79;43.62
67341;BME280;54227;45.198;5.732;2022-07-21T06:16:54;99589.81;;;28.76;44.16
67341;BME280;54227;45.198;5.732;2022-07-21T06:19:19;99580.94;;;28.77;44.48
67341;BME280;54227;45.198;5.732;2022-07-21T06:21:45;99576.09;;;28.78;44.26
67341;BME280;54227;45.198;5.732;2022-07-21T06:24:11;99584.56;;;28.78;43.78
67341;BME280;54227;45.198;5.732;2022-07-21T06:26:36;99590.25;;;28.74;42.50
67341;BME280;54227;45.198;5.732;2022-07-21T06:29:04;99591.25;;;28.61;43.38
67341;BME280;54227;45.198;5.732;2022-07-21T06:31:29;99586.94;;;28.52;44.08
67341;BME280;54227;45.198;5.732;2022-07-21T06:33:54;99597.03;;;28.50;44.53
67341;BME280;54227;45.198;5.732;2022-07-21T06:36:20;99607.38;;;28.57;44.52
67341;BME280;54227;45.198;5.732;2022-07-21T06:38:45;99601.28;;;28.62;44.32
67341;BME280;54227;45.198;5.732;2022-07-21T06:41:11;99603.56;;;28.70;43.98
67341;BME280;54227;45.198;5.732;2022-07-21T06:43:37;99593.22;;;28.64;42.23
67341;BME280;54227;45.198;5.732;2022-07-21T06:46:03;99599.69;;;28.61;43.39
67341;BME280;54227;45.198;5.732;2022-07-21T06:48:28;99603.03;;;28.52;44.27
67341;BME280;54227;45.198;5.732;2022-07-21T06:50:55;99615.09;;;28.52;44.22
67341;BME280;54227;45.198;5.732;2022-07-21T06:53:21;99608.59;;;28.56;43.79
67341;BME280;54227;45.198;5.732;2022-07-21T06:55:47;99611.75;;;28.61;43.67
67341;BME280;54227;45.198;5.732;2022-07-21T06:58:15;99604.09;;;28.62;42.77
67341;BME280;54227;45.198;5.732;2022-07-21T07:00:42;99611.81;;;28.58;41.51
67341;BME280;54227;45.198;5.732;2022-07-21T07:03:07;99611.94;;;28.47;43.44
67341;BME280;54227;45.198;5.732;2022-07-21T07:05:33;99614.00;;;28.43;43.72
67341;BME280;54227;45.198;5.732;2022-07-21T07:07:58;99607.91;;;28.48;43.07
67341;BME280;54227;45.198;5.732;2022-07-21T07:10:24;99605.44;;;28.54;42.39
67341;BME280;54227;45.198;5.732;2022-07-21T07:12:50;99610.19;;;28.57;41.47
67341;BME280;54227;45.198;5.732;2022-07-21T07:15:15;99603.75;;;28.60;40.77
67341;BME280;54227;45.198;5.732;2022-07-21T07:17:41;99606.91;;;28.62;40.21
67341;BME280;54227;45.198;5.732;2022-07-21T07:20:07;99599.22;;;28.66;39.89
67341;BME280;54227;45.198;5.732;2022-07-21T07:22:33;99605.59;;;28.70;39.53
67341;BME280;54227;45.198;5.732;2022-07-21T07:25:00;99599.84;;;28.77;39.57
67341;BME280;54227;45.198;5.732;2022-07-21T07:27:26;99603.53;;;28.74;39.80
67341;BME280;54227;45.198;5.732;2022-07-21T07:29:57;99608.28;;;28.77;39.84
67341;BME280;54227;45.198;5.732;2022-07-21T07:32:29;99603.28;;;28.65;39.62
67341;BME280;54227;45.198;5.732;2022-07-21T07:34:58;99604.25;;;28.51;40.63
67341;BME280;54227;45.198;5.732;2022-07-21T07:37:28;99602.84;;;28.36;41.26
67341;BME280;54227;45.198;5.732;2022-07-21T07:39:58;99595.16;;;28.40;40.98
67341;BME280;54227;45.198;5.732;2022-07-21T07:42:30;99590.13;;;28.55;40.51
67341;BME280;54227;45.198;5.732;2022-07-21T07:45:00;99602.50;;;28.61;39.73
67341;BME280;54227;45.198;5.732;2022-07-21T07:47:33;99592.41;;;28.63;39.06
67341;BME280;54227;45.198;5.732;2022-07-21T07:50:08;99594.53;;;28.56;37.67
67341;BME280;54227;45.198;5.732;2022-07-21T07:52:39;99589.69;;;28.25;37.64
67341;BME280;54227;45.198;5.732;2022-07-21T07:55:08;99593.22;;;27.99;38.07
67341;BME280;54227;45.198;5.732;2022-07-21T07:57:39;99590.97;;;27.87;38.08
67341;BME280;54227;45.198;5.732;2022-07-21T08:00:10;99589.94;;;27.70;38.25
67341;BME280;54227;45.198;5.732;2022-07-21T08:02:42;99584.84;;;27.58;38.35
67341;BME280;54227;45.198;5.732;2022-07-21T08:05:13;99585.72;;;27.48;38.47
67341;BME280;54227;45.198;5.732;2022-07-21T08:07:40;99577.31;;;27.48;38.26
67341;BME280;54227;45.198;5.732;2022-07-21T08:10:07;99578.16;;;27.41;38.44
67341;BME280;54227;45.198;5.732;2022-07-21T08:12:33;99563.31;;;27.40;38.68
67341;BME280;54227;45.198;5.732;2022-07-21T08:14:58;99566.13;;;27.40;38.71
67341;BME280;54227;45.198;5.732;2022-07-21T08:17:24;99566.50;;;27.42;38.51
67341;BME280;54227;45.198;5.732;2022-07-21T08:19:49;99568.94;;;27.40;38.51
67341;BME280;54227;45.198;5.732;2022-07-21T08:22:15;99571.00;;;27.36;38.16
67341;BME280;54227;45.198;5.732;2022-07-21T08:24:40;99561.38;;;27.34;38.04
67341;BME280;54227;45.198;5.732;2022-07-21T08:27:05;99556.22;;;27.29;37.72
67341;BME280;54227;45.198;5.732;2022-07-21T08:29:31;99554.97;;;27.33;37.85
67341;BME280;54227;45.198;5.732;2022-07-21T08:31:56;99545.88;;;27.22;38.01
67341;BME280;54227;45.198;5.732;2022-07-21T08:34:22;99544.59;;;27.27;37.47
67341;BME280;54227;45.198;5.732;2022-07-21T08:36:47;99554.97;;;27.33;37.19
67341;BME280;54227;45.198;5.732;2022-07-21T08:39:13;99541.78;;;27.27;36.92
67341;BME280;54227;45.198;5.732;2022-07-21T08:41:39;99547.00;;;27.28;36.92
67341;BME280;54227;45.198;5.732;2022-07-21T08:44:05;99544.66;;;27.23;36.34
67341;BME280;54227;45.198;5.732;2022-07-21T08:46:33;99540.66;;;27.21;36.35
67341;BME280;54227;45.198;5.732;2022-07-21T08:49:02;99536.31;;;27.12;36.11
67341;BME280;54227;45.198;5.732;2022-07-21T08:51:32;99534.34;;;27.09;36.54
67341;BME280;54227;45.198;5.732;2022-07-21T08:53:58;99538.38;;;27.08;36.23
67341;BME280;54227;45.198;5.732;2022-07-21T08:56:23;99543.19;;;27.08;36.16
67341;BME280;54227;45.198;5.732;2022-07-21T08:58:49;99525.97;;;27.02;36.20
67341;BME280;54227;45.198;5.732;2022-07-21T09:01:14;99523.63;;;26.94;36.14
67341;BME280;54227;45.198;5.732;2022-07-21T09:03:40;99528.81;;;26.95;36.07
67341;BME280;54227;45.198;5.732;2022-07-21T09:06:12;99535.66;;;26.94;37.68
67341;BME280;54227;45.198;5.732;2022-07-21T09:08:47;99533.16;;;27.07;39.75
67341;BME280;54227;45.198;5.732;2022-07-21T09:11:21;99532.34;;;27.10;38.40
67341;BME280;54227;45.198;5.732;2022-07-21T09:14:33;99533.13;;;27.10;37.16
67341;BME280;54227;45.198;5.732;2022-07-21T09:16:38;99521.91;;;27.07;37.00
67341;BME280;54227;45.198;5.732;2022-07-21T09:19:04;99514.72;;;27.02;36.63
67341;BME280;54227;45.198;5.732;2022-07-21T09:21:34;99524.38;;;26.98;36.47
67341;BME280;54227;45.198;5.732;2022-07-21T09:24:21;99519.22;;;26.93;36.32
67341;BME280;54227;45.198;5.732;2022-07-21T09:29:46;99518.72;;;27.08;38.54
67341;BME280;54227;45.198;5.732;2022-07-21T09:32:31;99510.63;;;27.14;38.05
67341;BME280;54227;45.198;5.732;2022-07-21T09:35:08;99503.00;;;27.14;38.48
67341;BME280;54227;45.198;5.732;2022-07-21T09:37:41;99496.97;;;27.16;37.87
67341;BME280;54227;45.198;5.732;2022-07-21T09:40:11;99505.41;;;27.12;37.46
67341;BME280;54227;45.198;5.732;2022-07-21T09:42:43;99500.66;;;27.06;37.44
67341;BME280;54227;45.198;5.732;2022-07-21T09:45:11;99501.47;;;27.06;37.21
67341;BME280;54227;45.198;5.732;2022-07-21T09:47:38;99489.47;;;27.02;37.10
67341;BME280;54227;45.198;5.732;2022-07-21T09:50:06;99488.25;;;27.00;36.47
67341;BME280;54227;45.198;5.732;2022-07-21T09:52:42;99499.13;;;26.98;36.28
67341;BME280;54227;45.198;5.732;2022-07-21T09:55:10;99483.88;;;26.99;36.45
67341;BME280;54227;45.198;5.732;2022-07-21T09:57:36;99483.13;;;26.95;36.02
67341;BME280;54227;45.198;5.732;2022-07-21T10:00:07;99483.13;;;26.91;36.51
67341;BME280;54227;45.198;5.732;2022-07-21T10:02:34;99477.94;;;26.89;36.58
67341;BME280;54227;45.198;5.732;2022-07-21T10:05:11;99464.31;;;26.88;36.42
67341;BME280;54227;45.198;5.732;2022-07-21T10:07:46;99467.94;;;26.88;36.21
67341;BME280;54227;45.198;5.732;2022-07-21T10:10:12;99459.53;;;26.85;35.60
67341;BME280;54227;45.198;5.732;2022-07-21T10:12:38;99466.34;;;26.87;38.29
67341;BME280;54227;45.198;5.732;2022-07-21T10:15:04;99460.25;;;26.96;39.54
67341;BME280;54227;45.198;5.732;2022-07-21T10:17:30;99459.47;;;26.92;38.54
67341;BME280;54227;45.198;5.732;2022-07-21T10:20:13;99451.47;;;26.91;37.76
67341;BME280;54227;45.198;5.732;2022-07-21T10:22:56;99460.75;;;26.84;36.95
67341;BME280;54227;45.198;5.732;2022-07-21T10:25:23;99454.78;;;26.78;37.38
67341;BME280;54227;45.198;5.732;2022-07-21T10:30:56;99447.88;;;26.90;38.60
67341;BME280;54227;45.198;5.732;2022-07-21T10:41:40;99432.31;;;26.82;39.74
67341;BME280;54227;45.198;5.732;2022-07-21T10:47:17;99427.88;;;26.84;40.80
67341;BME280;54227;45.198;5.732;2022-07-21T10:50:01;99432.91;;;27.00;41.71
67341;BME280;54227;45.198;5.732;2022-07-21T10:57:43;99420.06;;;27.40;42.21
67341;BME280;54227;45.198;5.732;2022-07-21T11:00:29;99415.13;;;27.52;42.38
67341;BME280;54227;45.198;5.732;2022-07-21T11:03:00;99415.34;;;27.64;42.23
67341;BME280;54227;45.198;5.732;2022-07-21T11:05:28;99408.81;;;27.75;42.11
67341;BME280;54227;45.198;5.732;2022-07-21T11:10:51;99400.56;;;27.91;41.97
67341;BME280;54227;45.198;5.732;2022-07-21T11:13:19;99394.78;;;28.02;41.96
67341;BME280;54227;45.198;5.732;2022-07-21T11:15:55;99403.50;;;28.07;42.10
67341;BME280;54227;45.198;5.732;2022-07-21T11:18:23;99397.78;;;28.14;41.77
67341;BME280;54227;45.198;5.732;2022-07-21T11:21:13;99384.91;;;28.17;41.96
67341;BME280;54227;45.198;5.732;2022-07-21T11:23:42;99380.75;;;28.25;41.75
67341;BME280;54227;45.198;5.732;2022-07-21T11:26:10;99383.13;;;28.30;41.70
67341;BME280;54227;45.198;5.732;2022-07-21T11:28:36;99395.09;;;28.34;41.47
67341;BME280;54227;45.198;5.732;2022-07-21T11:31:18;99369.66;;;28.41;41.40
67341;BME280;54227;45.198;5.732;2022-07-21T11:33:47;99361.59;;;28.43;41.27
67341;BME280;54227;45.198;5.732;2022-07-21T11:36:31;99363.47;;;28.50;41.24
67341;BME280;54227;45.198;5.732;2022-07-21T11:41:26;99346.97;;;28.52;40.49
67341;BME280;54227;45.198;5.732;2022-07-21T11:43:52;99350.38;;;28.40;41.33
67341;BME280;54227;45.198;5.732;2022-07-21T11:46:17;99332.72;;;28.39;41.67
67341;BME280;54227;45.198;5.732;2022-07-21T11:48:43;99336.69;;;28.42;41.67
67341;BME280;54227;45.198;5.732;2022-07-21T11:51:08;99331.13;;;28.38;40.74
67341;BME280;54227;45.198;5.732;2022-07-21T11:53:34;99327.75;;;28.23;39.88
67341;BME280;54227;45.198;5.732;2022-07-21T11:56:00;99326.63;;;28.17;41.88
67341;BME280;54227;45.198;5.732;2022-07-21T11:58:26;99321.06;;;28.14;41.29
67341;BME280;54227;45.198;5.732;2022-07-21T12:01:08;99316.88;;;27.98;42.09
67341;BME280;54227;45.198;5.732;2022-07-21T12:03:34;99302.78;;;28.02;42.76
67341;BME280;54227;45.198;5.732;2022-07-21T12:06:03;99310.91;;;27.96;41.19
67341;BME280;54227;45.198;5.732;2022-07-21T12:08:29;99291.38;;;27.86;42.20
67341;BME280;54227;45.198;5.732;2022-07-21T12:11:08;99301.44;;;27.87;42.77
67341;BME280;54227;45.198;5.732;2022-07-21T12:13:56;99294.28;;;27.82;40.86
67341;BME280;54227;45.198;5.732;2022-07-21T12:16:22;99289.75;;;27.88;42.41
67341;BME280;54227;45.198;5.732;2022-07-21T12:18:48;99292.88;;;27.94;43.08
67341;BME280;54227;45.198;5.732;2022-07-21T12:21:13;99290.00;;;27.97;42.07
67341;BME280;54227;45.198;5.732;2022-07-21T12:23:39;99272.09;;;27.88;40.75
67341;BME280;54227;45.198;5.732;2022-07-21T12:26:05;99278.88;;;27.90;42.90
67341;BME280;54227;45.198;5.732;2022-07-21T12:28:46;99270.41;;;27.94;41.79
67341;BME280;54227;45.198;5.732;2022-07-21T12:31:15;99270.44;;;27.90;42.45
67341;BME280;54227;45.198;5.732;2022-07-21T12:33:45;99276.03;;;27.94;42.27
67341;BME280;54227;45.198;5.732;2022-07-21T12:36:11;99268.50;;;27.87;41.91
67341;BME280;54227;45.198;5.732;2022-07-21T12:38:42;99256.47;;;27.87;43.49
67341;BME280;54227;45.198;5.732;2022-07-21T12:41:09;99248.06;;;27.83;42.00
67341;BME280;54227;45.198;5.732;2022-07-21T12:43:36;99252.97;;;27.79;42.69
67341;BME280;54227;45.198;5.732;2022-07-21T12:46:08;99252.84;;;27.86;42.91
67341;BME280;54227;45.198;5.732;2022-07-21T12:48:34;99256.25;;;27.97;42.97
67341;BME280;54227;45.198;5.732;2022-07-21T12:51:13;99254.38;;;27.91;41.38
67341;BME280;54227;45.198;5.732;2022-07-21T12:53:47;99244.03;;;27.84;42.26
67341;BME280;54227;45.198;5.732;2022-07-21T12:56:21;99249.59;;;27.88;43.00
67341;BME280;54227;45.198;5.732;2022-07-21T12:58:48;99245.63;;;27.85;41.33
67341;BME280;54227;45.198;5.732;2022-07-21T13:01:15;99246.84;;;27.84;42.35
67341;BME280;54227;45.198;5.732;2022-07-21T13:03:41;99224.75;;;27.86;42.81
67341;BME280;54227;45.198;5.732;2022-07-21T13:06:07;99228.41;;;27.83;41.47
67341;BME280;54227;45.198;5.732;2022-07-21T13:08:33;99225.59;;;27.83;43.84
67341;BME280;54227;45.198;5.732;2022-07-21T13:10:59;99235.47;;;27.91;42.97
67341;BME280;54227;45.198;5.732;2022-07-21T13:13:25;99234.25;;;27.92;43.91
67341;BME280;54227;45.198;5.732;2022-07-21T13:15:51;99229.38;;;27.96;43.03
67341;BME280;54227;45.198;5.732;2022-07-21T13:18:17;99222.66;;;27.90;41.96
67341;BME280;54227;45.198;5.732;2022-07-21T13:20:42;99219.34;;;27.95;44.51
67341;BME280;54227;45.198;5.732;2022-07-21T13:23:08;99226.59;;;27.93;42.54
67341;BME280;54227;45.198;5.732;2022-07-21T13:25:34;99218.25;;;27.89;43.42
67341;BME280;54227;45.198;5.732;2022-07-21T13:28:01;99214.97;;;27.94;43.32
67341;BME280;54227;45.198;5.732;2022-07-21T13:30:27;99219.00;;;27.93;41.73
67341;BME280;54227;45.198;5.732;2022-07-21T13:32:52;99217.16;;;27.83;42.56